Airfield :
LOGIN :

Register | Disclaimer

   EN    FR    IT 

 










Legend :    VFR   Marginal VFR   IFR   Intensive IFR   Very Intensive IFR
Visi :
Ceiling :
>= 8 km
>= 3000ft
5 to 8 km
1000 to 3000 ft
1500m to 5 km
500 to 1000 ft
800 to 1500m
200 to 500 ft
< 800m
< 200 ft
Symbols :   Thunderstorms  Fog  Heavy snow  Heavy precipitations  Wind > 20 kt
SIGMETs :     Misc.  Thunderstorms  Icing  Turbulence  Mountain Waves  Volcanic Ashes






- Airport Elevation : 1906 ft
- IATA code : INN


LOWI - Innsbruck

CURRENT METAR :
  • 130450Z 28013KT 9999 FEW060 BKN100 M02/M05 Q0990 R08/19//95 NOSIG

EXPIRED METARs :
  • 130420Z AUTO 27013KT 9999 FEW100 BKN120 M02/M04 Q0990
  • 130350Z AUTO 27011KT 9999 OVC110 M02/M04 Q0990
  • 130320Z AUTO 27010KT 9999 FEW090 BKN110 M02/M05 Q0991
  • 130250Z AUTO 28009KT 9999 FEW090 BKN110 M02/M04 Q0992
  • 130220Z AUTO 27012KT 9999 FEW100 BKN130 M02/M04 Q0992

TAF AMD TAF LOWI
Valid from the 13 at 04:00 until the 14 at 00:00 UTC


130437Z 1304/1324 27010KT 9999 FEW060 BKN100 TX02/1314Z TNM02/1305Z
TEMPO 1312/1316 27015G25KT -SHSN SCT030 BKN060
BECMG 1316/1318 27004KT



MET'MAP, your aeronautical weather chart ! - Copyright ORBIFLY December 2007 - Disclaimer

ORBIFLY MET'MAP TEAM :

Programming & Development : Alexandra Zaïnal
Concept & original design : Baudouin d'Aumeries
Assistance for programming : Marc-Olivier Méhu
Technical & hardware support : Manuel Goepfert

Contact : metmap@orbifly.com




SOURCES & CREDITS :

   NOAA